sensor_id;sensor_type;location;lat;lon;timestamp;P1;durP1;ratioP1;P2;durP2;ratioP2
74401;SDS011;62837;51.082;13.744;2023-06-22T00:01:23;8.50;;;5.30;;
74401;SDS011;62837;51.082;13.744;2023-06-22T00:03:54;7.80;;;5.70;;
74401;SDS011;62837;51.082;13.744;2023-06-22T00:06:25;5.70;;;4.80;;
74401;SDS011;62837;51.082;13.744;2023-06-22T00:08:56;8.40;;;5.80;;
74401;SDS011;62837;51.082;13.744;2023-06-22T00:11:27;6.40;;;4.50;;
74401;SDS011;62837;51.082;13.744;2023-06-22T00:13:59;6.70;;;5.30;;
74401;SDS011;62837;51.082;13.744;2023-06-22T00:16:31;7.70;;;5.00;;
74401;SDS011;62837;51.082;13.744;2023-06-22T00:19:02;6.60;;;5.20;;
74401;SDS011;62837;51.082;13.744;2023-06-22T00:21:33;7.20;;;5.40;;
74401;SDS011;62837;51.082;13.744;2023-06-22T00:26:35;7.20;;;4.70;;
74401;SDS011;62837;51.082;13.744;2023-06-22T00:31:36;8.30;;;5.70;;
74401;SDS011;62837;51.082;13.744;2023-06-22T00:34:07;9.10;;;6.10;;
74401;SDS011;62837;51.082;13.744;2023-06-22T00:36:38;7.40;;;4.90;;
74401;SDS011;62837;51.082;13.744;2023-06-22T00:39:09;6.50;;;4.30;;
74401;SDS011;62837;51.082;13.744;2023-06-22T00:41:41;7.90;;;5.20;;
74401;SDS011;62837;51.082;13.744;2023-06-22T00:44:12;8.10;;;5.10;;
74401;SDS011;62837;51.082;13.744;2023-06-22T00:46:43;7.60;;;5.60;;
74401;SDS011;62837;51.082;13.744;2023-06-22T00:49:13;8.90;;;6.50;;
74401;SDS011;62837;51.082;13.744;2023-06-22T00:51:44;7.30;;;5.40;;
74401;SDS011;62837;51.082;13.744;2023-06-22T00:54:15;9.60;;;6.70;;
74401;SDS011;62837;51.082;13.744;2023-06-22T00:56:54;10.70;;;5.90;;
74401;SDS011;62837;51.082;13.744;2023-06-22T00:59:25;10.50;;;5.90;;
74401;SDS011;62837;51.082;13.744;2023-06-22T01:01:56;9.40;;;6.10;;
74401;SDS011;62837;51.082;13.744;2023-06-22T01:04:34;8.20;;;6.40;;
74401;SDS011;62837;51.082;13.744;2023-06-22T01:07:10;7.20;;;5.10;;
74401;SDS011;62837;51.082;13.744;2023-06-22T01:09:51;10.30;;;6.80;;
74401;SDS011;62837;51.082;13.744;2023-06-22T01:12:32;8.50;;;6.10;;
74401;SDS011;62837;51.082;13.744;2023-06-22T01:15:10;6.70;;;5.60;;
74401;SDS011;62837;51.082;13.744;2023-06-22T01:17:44;7.40;;;5.80;;
74401;SDS011;62837;51.082;13.744;2023-06-22T01:20:16;7.50;;;5.60;;
74401;SDS011;62837;51.082;13.744;2023-06-22T01:25:43;7.50;;;6.40;;
74401;SDS011;62837;51.082;13.744;2023-06-22T01:31:04;8.70;;;5.50;;
74401;SDS011;62837;51.082;13.744;2023-06-22T01:33:37;7.20;;;5.00;;
74401;SDS011;62837;51.082;13.744;2023-06-22T01:36:10;7.20;;;5.10;;
74401;SDS011;62837;51.082;13.744;2023-06-22T01:38:43;9.70;;;5.80;;
74401;SDS011;62837;51.082;13.744;2023-06-22T01:41:16;9.30;;;5.40;;
74401;SDS011;62837;51.082;13.744;2023-06-22T01:43:48;6.40;;;4.90;;
74401;SDS011;62837;51.082;13.744;2023-06-22T01:46:20;6.20;;;4.30;;
74401;SDS011;62837;51.082;13.744;2023-06-22T01:48:51;6.60;;;5.00;;
74401;SDS011;62837;51.082;13.744;2023-06-22T01:51:23;7.10;;;5.40;;
74401;SDS011;62837;51.082;13.744;2023-06-22T01:53:54;6.70;;;5.00;;
74401;SDS011;62837;51.082;13.744;2023-06-22T01:56:25;8.00;;;5.30;;
74401;SDS011;62837;51.082;13.744;2023-06-22T01:58:57;14.30;;;6.60;;
74401;SDS011;62837;51.082;13.744;2023-06-22T02:01:36;9.00;;;5.60;;
74401;SDS011;62837;51.082;13.744;2023-06-22T02:04:13;9.60;;;5.40;;
74401;SDS011;62837;51.082;13.744;2023-06-22T02:06:51;9.30;;;5.40;;
74401;SDS011;62837;51.082;13.744;2023-06-22T02:09:29;6.70;;;5.40;;
74401;SDS011;62837;51.082;13.744;2023-06-22T02:12:01;8.80;;;5.90;;
74401;SDS011;62837;51.082;13.744;2023-06-22T02:14:34;6.50;;;5.40;;
74401;SDS011;62837;51.082;13.744;2023-06-22T02:17:05;7.70;;;6.80;;
74401;SDS011;62837;51.082;13.744;2023-06-22T02:19:37;8.20;;;5.60;;
74401;SDS011;62837;51.082;13.744;2023-06-22T02:22:10;9.20;;;6.70;;
74401;SDS011;62837;51.082;13.744;2023-06-22T02:24:41;7.30;;;6.00;;
74401;SDS011;62837;51.082;13.744;2023-06-22T02:27:12;7.70;;;5.60;;
74401;SDS011;62837;51.082;13.744;2023-06-22T02:29:43;8.10;;;4.70;;
74401;SDS011;62837;51.082;13.744;2023-06-22T02:32:13;6.30;;;4.50;;
74401;SDS011;62837;51.082;13.744;2023-06-22T02:34:47;9.70;;;6.00;;
74401;SDS011;62837;51.082;13.744;2023-06-22T02:37:18;13.40;;;6.20;;
74401;SDS011;62837;51.082;13.744;2023-06-22T02:39:53;7.00;;;5.10;;
74401;SDS011;62837;51.082;13.744;2023-06-22T02:42:23;7.90;;;5.80;;
74401;SDS011;62837;51.082;13.744;2023-06-22T02:44:54;8.30;;;6.00;;
74401;SDS011;62837;51.082;13.744;2023-06-22T02:47:25;9.30;;;5.30;;
74401;SDS011;62837;51.082;13.744;2023-06-22T02:49:56;6.60;;;5.50;;
74401;SDS011;62837;51.082;13.744;2023-06-22T02:52:26;10.50;;;5.50;;
74401;SDS011;62837;51.082;13.744;2023-06-22T02:54:57;8.10;;;5.50;;
74401;SDS011;62837;51.082;13.744;2023-06-22T02:57:29;8.80;;;5.30;;
74401;SDS011;62837;51.082;13.744;2023-06-22T03:00:01;8.00;;;5.40;;
74401;SDS011;62837;51.082;13.744;2023-06-22T03:02:45;8.70;;;6.00;;
74401;SDS011;62837;51.082;13.744;2023-06-22T03:05:17;8.00;;;5.80;;
74401;SDS011;62837;51.082;13.744;2023-06-22T03:07:48;7.70;;;5.30;;
74401;SDS011;62837;51.082;13.744;2023-06-22T03:10:19;8.70;;;5.30;;
74401;SDS011;62837;51.082;13.744;2023-06-22T03:12:50;6.70;;;5.20;;
74401;SDS011;62837;51.082;13.744;2023-06-22T03:15:20;9.00;;;5.60;;
74401;SDS011;62837;51.082;13.744;2023-06-22T03:17:51;9.90;;;5.70;;
74401;SDS011;62837;51.082;13.744;2023-06-22T03:20:23;12.20;;;6.70;;
74401;SDS011;62837;51.082;13.744;2023-06-22T03:25:30;8.30;;;5.30;;
74401;SDS011;62837;51.082;13.744;2023-06-22T03:28:02;10.60;;;5.90;;
74401;SDS011;62837;51.082;13.744;2023-06-22T03:30:33;9.00;;;5.80;;
74401;SDS011;62837;51.082;13.744;2023-06-22T03:33:04;9.30;;;6.40;;
74401;SDS011;62837;51.082;13.744;2023-06-22T03:35:35;7.40;;;5.40;;
74401;SDS011;62837;51.082;13.744;2023-06-22T03:38:06;8.10;;;5.30;;
74401;SDS011;62837;51.082;13.744;2023-06-22T03:40:37;6.50;;;4.90;;
74401;SDS011;62837;51.082;13.744;2023-06-22T03:43:07;7.70;;;5.30;;
74401;SDS011;62837;51.082;13.744;2023-06-22T03:45:38;11.40;;;5.10;;
74401;SDS011;62837;51.082;13.744;2023-06-22T03:48:09;12.40;;;6.30;;
74401;SDS011;62837;51.082;13.744;2023-06-22T03:50:40;7.60;;;5.50;;
74401;SDS011;62837;51.082;13.744;2023-06-22T03:53:11;16.70;;;5.70;;
74401;SDS011;62837;51.082;13.744;2023-06-22T03:55:49;12.00;;;6.30;;
74401;SDS011;62837;51.082;13.744;2023-06-22T03:58:20;13.10;;;5.70;;
74401;SDS011;62837;51.082;13.744;2023-06-22T04:00:52;11.10;;;5.70;;
74401;SDS011;62837;51.082;13.744;2023-06-22T04:03:23;10.80;;;5.50;;
74401;SDS011;62837;51.082;13.744;2023-06-22T04:05:53;10.50;;;6.20;;
74401;SDS011;62837;51.082;13.744;2023-06-22T04:08:24;11.00;;;5.60;;
74401;SDS011;62837;51.082;13.744;2023-06-22T04:10:55;12.10;;;6.20;;
74401;SDS011;62837;51.082;13.744;2023-06-22T04:13:25;8.60;;;6.10;;
74401;SDS011;62837;51.082;13.744;2023-06-22T04:15:56;7.50;;;5.90;;
74401;SDS011;62837;51.082;13.744;2023-06-22T04:18:29;9.00;;;6.50;;
74401;SDS011;62837;51.082;13.744;2023-06-22T04:21:00;6.40;;;4.80;;
74401;SDS011;62837;51.082;13.744;2023-06-22T04:23:30;13.10;;;5.70;;
74401;SDS011;62837;51.082;13.744;2023-06-22T04:26:01;10.70;;;6.60;;
74401;SDS011;62837;51.082;13.744;2023-06-22T04:28:32;10.10;;;5.10;;
74401;SDS011;62837;51.082;13.744;2023-06-22T04:31:03;9.50;;;7.30;;
74401;SDS011;62837;51.082;13.744;2023-06-22T04:33:34;7.10;;;4.90;;
74401;SDS011;62837;51.082;13.744;2023-06-22T04:36:08;7.10;;;5.60;;
74401;SDS011;62837;51.082;13.744;2023-06-22T04:38:41;7.00;;;5.30;;
74401;SDS011;62837;51.082;13.744;2023-06-22T04:41:12;9.50;;;5.90;;
74401;SDS011;62837;51.082;13.744;2023-06-22T04:43:52;7.60;;;5.80;;
74401;SDS011;62837;51.082;13.744;2023-06-22T04:46:27;7.30;;;5.00;;
74401;SDS011;62837;51.082;13.744;2023-06-22T04:48:58;7.30;;;5.60;;
74401;SDS011;62837;51.082;13.744;2023-06-22T04:51:29;6.90;;;5.20;;
74401;SDS011;62837;51.082;13.744;2023-06-22T04:54:00;7.50;;;5.40;;
74401;SDS011;62837;51.082;13.744;2023-06-22T04:56:30;9.00;;;5.50;;
74401;SDS011;62837;51.082;13.744;2023-06-22T04:59:01;7.00;;;4.90;;
74401;SDS011;62837;51.082;13.744;2023-06-22T05:01:32;8.60;;;5.80;;
74401;SDS011;62837;51.082;13.744;2023-06-22T05:04:03;7.50;;;5.70;;
74401;SDS011;62837;51.082;13.744;2023-06-22T05:06:35;6.70;;;5.40;;
74401;SDS011;62837;51.082;13.744;2023-06-22T05:09:08;8.40;;;5.30;;
74401;SDS011;62837;51.082;13.744;2023-06-22T05:11:40;8.30;;;5.50;;
74401;SDS011;62837;51.082;13.744;2023-06-22T05:14:10;6.50;;;4.80;;
74401;SDS011;62837;51.082;13.744;2023-06-22T05:16:42;8.70;;;6.40;;
74401;SDS011;62837;51.082;13.744;2023-06-22T05:19:14;6.50;;;5.70;;
74401;SDS011;62837;51.082;13.744;2023-06-22T05:21:45;6.90;;;5.50;;
74401;SDS011;62837;51.082;13.744;2023-06-22T05:24:16;7.40;;;5.20;;
74401;SDS011;62837;51.082;13.744;2023-06-22T05:26:47;9.80;;;5.70;;
74401;SDS011;62837;51.082;13.744;2023-06-22T05:29:17;8.10;;;5.40;;
74401;SDS011;62837;51.082;13.744;2023-06-22T05:31:49;9.50;;;5.50;;
74401;SDS011;62837;51.082;13.744;2023-06-22T05:34:20;8.00;;;5.40;;
74401;SDS011;62837;51.082;13.744;2023-06-22T05:36:51;7.70;;;6.00;;
74401;SDS011;62837;51.082;13.744;2023-06-22T05:39:22;12.80;;;5.70;;
74401;SDS011;62837;51.082;13.744;2023-06-22T05:41:52;10.20;;;6.10;;
74401;SDS011;62837;51.082;13.744;2023-06-22T05:44:23;6.70;;;5.30;;
74401;SDS011;62837;51.082;13.744;2023-06-22T05:46:54;7.30;;;5.70;;
74401;SDS011;62837;51.082;13.744;2023-06-22T05:49:25;7.50;;;5.70;;
74401;SDS011;62837;51.082;13.744;2023-06-22T05:51:57;6.90;;;5.00;;
74401;SDS011;62837;51.082;13.744;2023-06-22T05:54:28;10.50;;;5.50;;
74401;SDS011;62837;51.082;13.744;2023-06-22T05:56:59;9.30;;;5.40;;
74401;SDS011;62837;51.082;13.744;2023-06-22T05:59:30;7.20;;;5.90;;
74401;SDS011;62837;51.082;13.744;2023-06-22T06:02:00;7.00;;;5.50;;
74401;SDS011;62837;51.082;13.744;2023-06-22T06:04:33;7.10;;;5.00;;
74401;SDS011;62837;51.082;13.744;2023-06-22T06:07:03;5.70;;;4.70;;
74401;SDS011;62837;51.082;13.744;2023-06-22T06:09:34;6.40;;;4.80;;
74401;SDS011;62837;51.082;13.744;2023-06-22T06:12:06;11.90;;;5.60;;
74401;SDS011;62837;51.082;13.744;2023-06-22T06:14:38;10.00;;;5.40;;
74401;SDS011;62837;51.082;13.744;2023-06-22T06:17:08;10.40;;;6.20;;
74401;SDS011;62837;51.082;13.744;2023-06-22T06:19:39;8.20;;;5.20;;
74401;SDS011;62837;51.082;13.744;2023-06-22T06:22:10;8.50;;;5.20;;
74401;SDS011;62837;51.082;13.744;2023-06-22T06:24:40;6.20;;;4.90;;
74401;SDS011;62837;51.082;13.744;2023-06-22T06:27:11;6.40;;;4.40;;
74401;SDS011;62837;51.082;13.744;2023-06-22T06:29:42;7.90;;;4.90;;
74401;SDS011;62837;51.082;13.744;2023-06-22T06:32:13;7.10;;;5.90;;
74401;SDS011;62837;51.082;13.744;2023-06-22T06:34:44;6.00;;;4.90;;
74401;SDS011;62837;51.082;13.744;2023-06-22T06:37:16;6.50;;;5.20;;
74401;SDS011;62837;51.082;13.744;2023-06-22T06:39:47;9.00;;;4.40;;
74401;SDS011;62837;51.082;13.744;2023-06-22T06:42:18;10.60;;;5.10;;
74401;SDS011;62837;51.082;13.744;2023-06-22T06:44:50;7.20;;;4.80;;
74401;SDS011;62837;51.082;13.744;2023-06-22T06:47:23;8.40;;;5.20;;
74401;SDS011;62837;51.082;13.744;2023-06-22T06:49:54;9.10;;;5.30;;
74401;SDS011;62837;51.082;13.744;2023-06-22T06:52:25;7.70;;;4.90;;
74401;SDS011;62837;51.082;13.744;2023-06-22T06:54:55;8.70;;;4.80;;
74401;SDS011;62837;51.082;13.744;2023-06-22T06:57:26;10.80;;;5.30;;
74401;SDS011;62837;51.082;13.744;2023-06-22T06:59:57;9.40;;;5.00;;
74401;SDS011;62837;51.082;13.744;2023-06-22T07:02:28;8.90;;;5.00;;
74401;SDS011;62837;51.082;13.744;2023-06-22T07:04:59;6.80;;;5.00;;
74401;SDS011;62837;51.082;13.744;2023-06-22T07:07:31;6.60;;;5.10;;
74401;SDS011;62837;51.082;13.744;2023-06-22T07:10:06;6.70;;;4.90;;
74401;SDS011;62837;51.082;13.744;2023-06-22T07:12:37;8.00;;;5.00;;
74401;SDS011;62837;51.082;13.744;2023-06-22T07:15:08;7.40;;;5.80;;
74401;SDS011;62837;51.082;13.744;2023-06-22T07:17:40;8.50;;;5.00;;
74401;SDS011;62837;51.082;13.744;2023-06-22T07:20:12;7.40;;;5.70;;
74401;SDS011;62837;51.082;13.744;2023-06-22T07:22:43;6.60;;;5.10;;
74401;SDS011;62837;51.082;13.744;2023-06-22T07:25:14;10.40;;;5.60;;
74401;SDS011;62837;51.082;13.744;2023-06-22T07:27:46;9.30;;;5.30;;
74401;SDS011;62837;51.082;13.744;2023-06-22T07:30:25;7.30;;;5.80;;
74401;SDS011;62837;51.082;13.744;2023-06-22T07:35:31;6.90;;;5.60;;
74401;SDS011;62837;51.082;13.744;2023-06-22T07:38:02;7.80;;;5.70;;
74401;SDS011;62837;51.082;13.744;2023-06-22T07:40:33;9.00;;;5.90;;
74401;SDS011;62837;51.082;13.744;2023-06-22T07:43:05;8.30;;;5.70;;
74401;SDS011;62837;51.082;13.744;2023-06-22T07:45:37;8.50;;;5.60;;
74401;SDS011;62837;51.082;13.744;2023-06-22T07:48:09;10.00;;;6.00;;
74401;SDS011;62837;51.082;13.744;2023-06-22T07:50:40;8.20;;;5.50;;
74401;SDS011;62837;51.082;13.744;2023-06-22T07:53:11;6.20;;;4.60;;
74401;SDS011;62837;51.082;13.744;2023-06-22T07:55:42;6.50;;;5.30;;
74401;SDS011;62837;51.082;13.744;2023-06-22T07:58:16;8.80;;;5.70;;
74401;SDS011;62837;51.082;13.744;2023-06-22T08:00:48;8.00;;;5.80;;
74401;SDS011;62837;51.082;13.744;2023-06-22T08:03:19;7.20;;;5.30;;
74401;SDS011;62837;51.082;13.744;2023-06-22T08:05:49;5.90;;;5.10;;
74401;SDS011;62837;51.082;13.744;2023-06-22T08:08:20;6.10;;;5.40;;
74401;SDS011;62837;51.082;13.744;2023-06-22T08:10:52;8.50;;;5.70;;
74401;SDS011;62837;51.082;13.744;2023-06-22T08:13:23;6.00;;;5.30;;
74401;SDS011;62837;51.082;13.744;2023-06-22T08:15:53;5.70;;;5.00;;
74401;SDS011;62837;51.082;13.744;2023-06-22T08:18:24;7.40;;;5.50;;
74401;SDS011;62837;51.082;13.744;2023-06-22T08:20:55;8.80;;;6.20;;
74401;SDS011;62837;51.082;13.744;2023-06-22T08:23:26;8.00;;;5.40;;
74401;SDS011;62837;51.082;13.744;2023-06-22T08:25:57;7.10;;;4.10;;
74401;SDS011;62837;51.082;13.744;2023-06-22T08:28:28;6.00;;;4.70;;
74401;SDS011;62837;51.082;13.744;2023-06-22T08:30:59;6.80;;;4.70;;
74401;SDS011;62837;51.082;13.744;2023-06-22T08:33:31;6.30;;;4.50;;
74401;SDS011;62837;51.082;13.744;2023-06-22T08:36:01;5.60;;;4.30;;
74401;SDS011;62837;51.082;13.744;2023-06-22T08:38:34;6.50;;;4.20;;
74401;SDS011;62837;51.082;13.744;2023-06-22T08:41:04;5.50;;;4.30;;
74401;SDS011;62837;51.082;13.744;2023-06-22T08:43:35;9.80;;;4.50;;
74401;SDS011;62837;51.082;13.744;2023-06-22T08:46:07;5.80;;;3.80;;
74401;SDS011;62837;51.082;13.744;2023-06-22T08:48:37;6.40;;;4.10;;
74401;SDS011;62837;51.082;13.744;2023-06-22T08:51:08;5.10;;;4.10;;
74401;SDS011;62837;51.082;13.744;2023-06-22T08:53:39;5.70;;;3.90;;
74401;SDS011;62837;51.082;13.744;2023-06-22T08:56:10;5.20;;;4.40;;
74401;SDS011;62837;51.082;13.744;2023-06-22T08:58:41;6.80;;;4.40;;
74401;SDS011;62837;51.082;13.744;2023-06-22T09:01:12;4.10;;;3.60;;
74401;SDS011;62837;51.082;13.744;2023-06-22T09:06:22;4.50;;;3.80;;
74401;SDS011;62837;51.082;13.744;2023-06-22T09:08:53;5.20;;;4.00;;
74401;SDS011;62837;51.082;13.744;2023-06-22T09:11:23;6.40;;;4.10;;
74401;SDS011;62837;51.082;13.744;2023-06-22T09:13:54;4.20;;;3.50;;
74401;SDS011;62837;51.082;13.744;2023-06-22T09:16:25;4.50;;;3.30;;
74401;SDS011;62837;51.082;13.744;2023-06-22T09:18:56;5.70;;;3.80;;
74401;SDS011;62837;51.082;13.744;2023-06-22T09:21:27;4.60;;;4.00;;
74401;SDS011;62837;51.082;13.744;2023-06-22T09:24:01;4.80;;;3.90;;
74401;SDS011;62837;51.082;13.744;2023-06-22T09:29:02;4.70;;;3.60;;
74401;SDS011;62837;51.082;13.744;2023-06-22T09:31:35;5.00;;;3.40;;
74401;SDS011;62837;51.082;13.744;2023-06-22T09:34:06;4.70;;;3.90;;
74401;SDS011;62837;51.082;13.744;2023-06-22T09:36:36;5.20;;;4.00;;
74401;SDS011;62837;51.082;13.744;2023-06-22T09:39:08;5.00;;;4.40;;
74401;SDS011;62837;51.082;13.744;2023-06-22T09:41:38;4.90;;;3.90;;
74401;SDS011;62837;51.082;13.744;2023-06-22T09:44:09;5.30;;;3.60;;
74401;SDS011;62837;51.082;13.744;2023-06-22T09:46:40;6.30;;;3.70;;
74401;SDS011;62837;51.082;13.744;2023-06-22T09:49:11;5.80;;;4.10;;
74401;SDS011;62837;51.082;13.744;2023-06-22T09:51:42;5.40;;;4.10;;
74401;SDS011;62837;51.082;13.744;2023-06-22T09:54:12;4.70;;;4.20;;
74401;SDS011;62837;51.082;13.744;2023-06-22T09:56:43;4.80;;;4.30;;
74401;SDS011;62837;51.082;13.744;2023-06-22T09:59:16;6.90;;;4.20;;
74401;SDS011;62837;51.082;13.744;2023-06-22T10:01:51;5.90;;;4.60;;
74401;SDS011;62837;51.082;13.744;2023-06-22T10:04:22;6.00;;;4.80;;
74401;SDS011;62837;51.082;13.744;2023-06-22T10:06:53;6.40;;;4.50;;
74401;SDS011;62837;51.082;13.744;2023-06-22T10:12:21;7.30;;;4.50;;
74401;SDS011;62837;51.082;13.744;2023-06-22T10:14:52;5.30;;;4.50;;
74401;SDS011;62837;51.082;13.744;2023-06-22T10:17:23;6.90;;;5.20;;
74401;SDS011;62837;51.082;13.744;2023-06-22T10:19:54;5.40;;;4.30;;
74401;SDS011;62837;51.082;13.744;2023-06-22T10:22:25;5.80;;;5.00;;
74401;SDS011;62837;51.082;13.744;2023-06-22T10:24:55;6.80;;;5.00;;
74401;SDS011;62837;51.082;13.744;2023-06-22T10:27:26;8.90;;;4.80;;
74401;SDS011;62837;51.082;13.744;2023-06-22T10:29:57;6.00;;;4.40;;
74401;SDS011;62837;51.082;13.744;2023-06-22T10:32:28;5.00;;;4.40;;
74401;SDS011;62837;51.082;13.744;2023-06-22T10:34:59;7.30;;;5.10;;
74401;SDS011;62837;51.082;13.744;2023-06-22T10:37:29;6.40;;;5.00;;
74401;SDS011;62837;51.082;13.744;2023-06-22T10:40:00;7.00;;;4.80;;
74401;SDS011;62837;51.082;13.744;2023-06-22T10:42:31;7.30;;;4.50;;
74401;SDS011;62837;51.082;13.744;2023-06-22T10:45:03;6.30;;;4.40;;
74401;SDS011;62837;51.082;13.744;2023-06-22T10:47:35;7.20;;;4.90;;
74401;SDS011;62837;51.082;13.744;2023-06-22T10:52:37;6.60;;;5.20;;
74401;SDS011;62837;51.082;13.744;2023-06-22T10:55:08;8.60;;;4.60;;
74401;SDS011;62837;51.082;13.744;2023-06-22T11:00:13;9.80;;;5.20;;
74401;SDS011;62837;51.082;13.744;2023-06-22T11:02:44;6.00;;;4.80;;
74401;SDS011;62837;51.082;13.744;2023-06-22T11:05:15;7.00;;;5.20;;
74401;SDS011;62837;51.082;13.744;2023-06-22T11:07:46;6.50;;;4.80;;
74401;SDS011;62837;51.082;13.744;2023-06-22T11:10:17;5.40;;;4.40;;
74401;SDS011;62837;51.082;13.744;2023-06-22T11:12:48;5.60;;;4.40;;
74401;SDS011;62837;51.082;13.744;2023-06-22T11:15:19;5.60;;;4.80;;
74401;SDS011;62837;51.082;13.744;2023-06-22T11:17:50;9.00;;;5.10;;
74401;SDS011;62837;51.082;13.744;2023-06-22T11:20:21;6.50;;;4.90;;
74401;SDS011;62837;51.082;13.744;2023-06-22T11:22:51;5.40;;;4.60;;
74401;SDS011;62837;51.082;13.744;2023-06-22T11:25:23;7.00;;;4.90;;
74401;SDS011;62837;51.082;13.744;2023-06-22T11:27:54;7.30;;;5.10;;
74401;SDS011;62837;51.082;13.744;2023-06-22T11:30:25;5.50;;;4.90;;
74401;SDS011;62837;51.082;13.744;2023-06-22T11:32:56;7.50;;;4.80;;
74401;SDS011;62837;51.082;13.744;2023-06-22T11:35:28;6.30;;;4.80;;
74401;SDS011;62837;51.082;13.744;2023-06-22T11:37:58;7.00;;;4.90;;
74401;SDS011;62837;51.082;13.744;2023-06-22T11:40:31;5.10;;;4.60;;
74401;SDS011;62837;51.082;13.744;2023-06-22T11:43:02;5.70;;;5.00;;
74401;SDS011;62837;51.082;13.744;2023-06-22T11:45:32;6.90;;;5.10;;
74401;SDS011;62837;51.082;13.744;2023-06-22T11:48:03;5.20;;;4.50;;
74401;SDS011;62837;51.082;13.744;2023-06-22T11:50:34;6.50;;;5.00;;
74401;SDS011;62837;51.082;13.744;2023-06-22T11:53:05;6.00;;;4.70;;
74401;SDS011;62837;51.082;13.744;2023-06-22T11:55:35;6.50;;;4.30;;
74401;SDS011;62837;51.082;13.744;2023-06-22T11:58:06;4.60;;;3.90;;
74401;SDS011;62837;51.082;13.744;2023-06-22T12:00:37;6.00;;;4.80;;
74401;SDS011;62837;51.082;13.744;2023-06-22T12:03:19;6.30;;;5.20;;
74401;SDS011;62837;51.082;13.744;2023-06-22T12:08:20;5.20;;;4.40;;
74401;SDS011;62837;51.082;13.744;2023-06-22T12:10:52;9.00;;;5.10;;
74401;SDS011;62837;51.082;13.744;2023-06-22T12:13:23;6.50;;;4.70;;
74401;SDS011;62837;51.082;13.744;2023-06-22T12:15:54;7.10;;;4.50;;
74401;SDS011;62837;51.082;13.744;2023-06-22T12:18:24;7.00;;;4.40;;
74401;SDS011;62837;51.082;13.744;2023-06-22T12:20:55;6.10;;;4.70;;
74401;SDS011;62837;51.082;13.744;2023-06-22T12:23:26;6.70;;;5.00;;
74401;SDS011;62837;51.082;13.744;2023-06-22T12:25:57;5.60;;;4.10;;
74401;SDS011;62837;51.082;13.744;2023-06-22T12:28:29;5.50;;;4.90;;
74401;SDS011;62837;51.082;13.744;2023-06-22T12:31:00;5.40;;;4.60;;
74401;SDS011;62837;51.082;13.744;2023-06-22T12:33:31;5.70;;;4.60;;
74401;SDS011;62837;51.082;13.744;2023-06-22T12:36:02;7.70;;;5.40;;
74401;SDS011;62837;51.082;13.744;2023-06-22T12:38:33;6.30;;;5.10;;
74401;SDS011;62837;51.082;13.744;2023-06-22T12:41:04;5.50;;;4.40;;
74401;SDS011;62837;51.082;13.744;2023-06-22T12:43:35;5.20;;;4.70;;
74401;SDS011;62837;51.082;13.744;2023-06-22T12:46:06;7.50;;;4.50;;
74401;SDS011;62837;51.082;13.744;2023-06-22T12:48:36;6.70;;;3.80;;
74401;SDS011;62837;51.082;13.744;2023-06-22T12:51:19;8.50;;;3.90;;
74401;SDS011;62837;51.082;13.744;2023-06-22T12:54:02;6.90;;;5.00;;
74401;SDS011;62837;51.082;13.744;2023-06-22T12:56:33;6.00;;;4.30;;
74401;SDS011;62837;51.082;13.744;2023-06-22T12:59:04;4.70;;;4.20;;
74401;SDS011;62837;51.082;13.744;2023-06-22T13:01:35;6.50;;;5.20;;
74401;SDS011;62837;51.082;13.744;2023-06-22T13:04:06;5.40;;;4.90;;
74401;SDS011;62837;51.082;13.744;2023-06-22T13:06:39;5.90;;;4.30;;
74401;SDS011;62837;51.082;13.744;2023-06-22T13:09:10;6.60;;;5.00;;
74401;SDS011;62837;51.082;13.744;2023-06-22T13:11:48;5.70;;;4.50;;
74401;SDS011;62837;51.082;13.744;2023-06-22T13:14:20;5.60;;;4.80;;
74401;SDS011;62837;51.082;13.744;2023-06-22T13:16:51;6.30;;;5.30;;
74401;SDS011;62837;51.082;13.744;2023-06-22T13:19:22;4.70;;;3.80;;
74401;SDS011;62837;51.082;13.744;2023-06-22T13:21:53;5.30;;;4.10;;
74401;SDS011;62837;51.082;13.744;2023-06-22T13:24:24;5.90;;;5.00;;
74401;SDS011;62837;51.082;13.744;2023-06-22T13:26:55;6.40;;;4.80;;
74401;SDS011;62837;51.082;13.744;2023-06-22T13:29:26;6.60;;;4.80;;
74401;SDS011;62837;51.082;13.744;2023-06-22T13:31:57;6.50;;;4.90;;
74401;SDS011;62837;51.082;13.744;2023-06-22T13:34:28;5.80;;;4.60;;
74401;SDS011;62837;51.082;13.744;2023-06-22T13:36:58;6.20;;;5.00;;
74401;SDS011;62837;51.082;13.744;2023-06-22T13:39:29;6.60;;;4.90;;
74401;SDS011;62837;51.082;13.744;2023-06-22T13:42:00;7.50;;;5.00;;
74401;SDS011;62837;51.082;13.744;2023-06-22T13:44:31;6.20;;;4.90;;
74401;SDS011;62837;51.082;13.744;2023-06-22T13:47:02;8.90;;;5.30;;
74401;SDS011;62837;51.082;13.744;2023-06-22T13:49:33;7.70;;;4.70;;
74401;SDS011;62837;51.082;13.744;2023-06-22T13:52:05;7.20;;;4.80;;
74401;SDS011;62837;51.082;13.744;2023-06-22T13:54:40;7.20;;;4.20;;
74401;SDS011;62837;51.082;13.744;2023-06-22T13:57:11;6.70;;;5.40;;
74401;SDS011;62837;51.082;13.744;2023-06-22T13:59:42;6.50;;;4.40;;
74401;SDS011;62837;51.082;13.744;2023-06-22T14:02:13;6.80;;;5.20;;
74401;SDS011;62837;51.082;13.744;2023-06-22T14:04:43;5.80;;;5.10;;
74401;SDS011;62837;51.082;13.744;2023-06-22T14:07:14;5.80;;;5.10;;
74401;SDS011;62837;51.082;13.744;2023-06-22T14:09:47;5.10;;;4.40;;
74401;SDS011;62837;51.082;13.744;2023-06-22T14:12:18;7.50;;;4.90;;
74401;SDS011;62837;51.082;13.744;2023-06-22T14:14:48;6.10;;;4.70;;
74401;SDS011;62837;51.082;13.744;2023-06-22T14:17:20;4.90;;;4.00;;
74401;SDS011;62837;51.082;13.744;2023-06-22T14:19:53;6.30;;;5.00;;
74401;SDS011;62837;51.082;13.744;2023-06-22T14:22:24;8.60;;;5.00;;
74401;SDS011;62837;51.082;13.744;2023-06-22T14:24:57;5.90;;;4.20;;
74401;SDS011;62837;51.082;13.744;2023-06-22T14:27:28;5.60;;;4.70;;
74401;SDS011;62837;51.082;13.744;2023-06-22T14:29:59;6.90;;;5.00;;
74401;SDS011;62837;51.082;13.744;2023-06-22T14:32:34;6.60;;;4.70;;
74401;SDS011;62837;51.082;13.744;2023-06-22T14:35:05;6.60;;;5.20;;
74401;SDS011;62837;51.082;13.744;2023-06-22T14:37:36;5.40;;;4.40;;
74401;SDS011;62837;51.082;13.744;2023-06-22T14:40:08;8.20;;;4.90;;
74401;SDS011;62837;51.082;13.744;2023-06-22T14:42:39;5.90;;;4.70;;
74401;SDS011;62837;51.082;13.744;2023-06-22T14:45:10;9.30;;;4.80;;
74401;SDS011;62837;51.082;13.744;2023-06-22T14:47:41;7.70;;;4.90;;
74401;SDS011;62837;51.082;13.744;2023-06-22T14:50:12;5.90;;;4.80;;
74401;SDS011;62837;51.082;13.744;2023-06-22T14:52:43;5.80;;;3.60;;
74401;SDS011;62837;51.082;13.744;2023-06-22T14:55:14;8.10;;;4.60;;
74401;SDS011;62837;51.082;13.744;2023-06-22T14:57:45;8.70;;;4.70;;
74401;SDS011;62837;51.082;13.744;2023-06-22T15:00:17;8.40;;;5.00;;
74401;SDS011;62837;51.082;13.744;2023-06-22T15:02:49;6.60;;;5.00;;
74401;SDS011;62837;51.082;13.744;2023-06-22T15:05:20;5.20;;;4.70;;
74401;SDS011;62837;51.082;13.744;2023-06-22T15:07:51;7.50;;;4.50;;
74401;SDS011;62837;51.082;13.744;2023-06-22T15:10:22;8.00;;;4.80;;
74401;SDS011;62837;51.082;13.744;2023-06-22T15:12:54;7.30;;;4.50;;
74401;SDS011;62837;51.082;13.744;2023-06-22T15:15:24;7.10;;;5.10;;
74401;SDS011;62837;51.082;13.744;2023-06-22T15:17:55;7.30;;;6.00;;
74401;SDS011;62837;51.082;13.744;2023-06-22T15:20:26;7.00;;;5.20;;
74401;SDS011;62837;51.082;13.744;2023-06-22T15:22:57;8.00;;;5.30;;
74401;SDS011;62837;51.082;13.744;2023-06-22T15:25:28;6.10;;;5.30;;
74401;SDS011;62837;51.082;13.744;2023-06-22T15:27:59;6.00;;;5.00;;
74401;SDS011;62837;51.082;13.744;2023-06-22T15:30:30;5.90;;;4.70;;